N172TL KPDX-KDLS
Flight info
| Callsign | N172TL |
|---|---|
| Flight time | 0h 27m |
| Altitude | 5500 |
| Route | VFR FF REQUESTED |
| Aircraft | C172/L-DOV/C |
Departure
| Time | 2026-05-08 03:14 |
|---|---|
| Airport | Portland International Airport (KPDX) |
Arrival
| Time | 2026-05-08 03:42 |
|---|---|
| Airport | Columbia Gorge Regional Airport (KDLS) |
| Time | Latitude | Longitude | Altitude | Speed | Heading |
|---|---|---|---|---|---|
| 2026-05-08 02:49 | 45.58295 | -122.59906 | 26 ft | 0 kts | 116° |
| 2026-05-08 02:59 | 45.58267 | -122.59861 | 25 ft | 21 kts | 152° |
| 2026-05-08 03:00 | 45.58209 | -122.59899 | 23 ft | 10 kts | 313° |
| 2026-05-08 03:00 | 45.58312 | -122.59958 | 26 ft | 18 kts | 2° |
| 2026-05-08 03:00 | 45.58378 | -122.59935 | 28 ft | 0 kts | 27° |
| 2026-05-08 03:02 | 45.58453 | -122.59874 | 29 ft | 23 kts | 51° |
| 2026-05-08 03:02 | 45.58430 | -122.59678 | 30 ft | 18 kts | 118° |
| 2026-05-08 03:03 | 45.58371 | -122.59527 | 28 ft | 16 kts | 120° |
| 2026-05-08 03:03 | 45.58325 | -122.59410 | 29 ft | 11 kts | 116° |
| 2026-05-08 03:03 | 45.58296 | -122.59332 | 28 ft | 3 kts | 108° |
| 2026-05-08 03:03 | 45.58296 | -122.59331 | 28 ft | 0 kts | 107° |
| 2026-05-08 03:07 | 45.58295 | -122.59313 | 28 ft | 3 kts | 83° |
| 2026-05-08 03:08 | 45.58297 | -122.59299 | 28 ft | 0 kts | 74° |
| 2026-05-08 03:09 | 45.58303 | -122.59284 | 28 ft | 0 kts | 51° |
| 2026-05-08 03:11 | 45.58342 | -122.59248 | 27 ft | 13 kts | 29° |
| 2026-05-08 03:11 | 45.58390 | -122.59250 | 27 ft | 0 kts | 298° |
| 2026-05-08 03:12 | 45.58395 | -122.59261 | 27 ft | 11 kts | 298° |
| 2026-05-08 03:13 | 45.58519 | -122.59580 | 32 ft | 58 kts | 298° |
| 2026-05-08 03:13 | 45.58757 | -122.60215 | 65 ft | 80 kts | 299° |
| 2026-05-08 03:13 | 45.59016 | -122.60904 | 223 ft | 79 kts | 296° |
| 2026-05-08 03:13 | 45.59266 | -122.61608 | 356 ft | 82 kts | 298° |
| 2026-05-08 03:14 | 45.59548 | -122.62323 | 500 ft | 84 kts | 304° |
| 2026-05-08 03:14 | 45.59889 | -122.63002 | 623 ft | 89 kts | 304° |
| 2026-05-08 03:14 | 45.60306 | -122.63719 | 796 ft | 95 kts | 308° |
| 2026-05-08 03:14 | 45.60726 | -122.64487 | 958 ft | 101 kts | 304° |
| 2026-05-08 03:15 | 45.61132 | -122.65334 | 1109 ft | 105 kts | 302° |
| 2026-05-08 03:15 | 45.61505 | -122.66225 | 1281 ft | 106 kts | 304° |
| 2026-05-08 03:15 | 45.61593 | -122.67285 | 1276 ft | 121 kts | 245° |
| 2026-05-08 03:15 | 45.60889 | -122.67938 | 1295 ft | 129 kts | 188° |
| 2026-05-08 03:16 | 45.59996 | -122.67829 | 1357 ft | 128 kts | 173° |
| 2026-05-08 03:16 | 45.59118 | -122.67681 | 1446 ft | 125 kts | 175° |
| 2026-05-08 03:16 | 45.58285 | -122.67540 | 1641 ft | 117 kts | 174° |
| 2026-05-08 03:16 | 45.57491 | -122.67409 | 1837 ft | 113 kts | 175° |
| 2026-05-08 03:17 | 45.56713 | -122.67278 | 2039 ft | 112 kts | 175° |
| 2026-05-08 03:17 | 45.55944 | -122.67145 | 2221 ft | 111 kts | 175° |
| 2026-05-08 03:17 | 45.55180 | -122.67009 | 2423 ft | 110 kts | 175° |
| 2026-05-08 03:17 | 45.54438 | -122.66880 | 2619 ft | 108 kts | 175° |
| 2026-05-08 03:18 | 45.53688 | -122.66751 | 2824 ft | 107 kts | 175° |
| 2026-05-08 03:18 | 45.53022 | -122.66374 | 3003 ft | 109 kts | 125° |
| 2026-05-08 03:18 | 45.52918 | -122.65351 | 3212 ft | 105 kts | 88° |
| 2026-05-08 03:18 | 45.52918 | -122.64316 | 3414 ft | 104 kts | 88° |
| 2026-05-08 03:19 | 45.52933 | -122.63282 | 3613 ft | 104 kts | 88° |
| 2026-05-08 03:19 | 45.52960 | -122.62237 | 3790 ft | 106 kts | 88° |
| 2026-05-08 03:19 | 45.52988 | -122.61192 | 3977 ft | 106 kts | 88° |
| 2026-05-08 03:19 | 45.53016 | -122.60135 | 4147 ft | 107 kts | 88° |
| 2026-05-08 03:20 | 45.53045 | -122.59064 | 4314 ft | 109 kts | 88° |
| 2026-05-08 03:20 | 45.53074 | -122.57980 | 4483 ft | 110 kts | 89° |
| 2026-05-08 03:20 | 45.53103 | -122.56893 | 4654 ft | 110 kts | 89° |
| 2026-05-08 03:20 | 45.53134 | -122.55791 | 4815 ft | 112 kts | 89° |
| 2026-05-08 03:21 | 45.53163 | -122.54694 | 4960 ft | 112 kts | 89° |
| 2026-05-08 03:21 | 45.53207 | -122.53576 | 5111 ft | 113 kts | 88° |
| 2026-05-08 03:21 | 45.53253 | -122.52449 | 5259 ft | 114 kts | 88° |
| 2026-05-08 03:21 | 45.53299 | -122.51309 | 5404 ft | 115 kts | 88° |
| 2026-05-08 03:22 | 45.53350 | -122.50149 | 5490 ft | 122 kts | 88° |
| 2026-05-08 03:22 | 45.53403 | -122.48889 | 5498 ft | 131 kts | 87° |
| 2026-05-08 03:22 | 45.53458 | -122.47560 | 5501 ft | 136 kts | 88° |
| 2026-05-08 03:22 | 45.53514 | -122.46197 | 5500 ft | 139 kts | 87° |
| 2026-05-08 03:23 | 45.53571 | -122.44817 | 5496 ft | 140 kts | 88° |
| 2026-05-08 03:23 | 45.53630 | -122.43433 | 5497 ft | 140 kts | 88° |
| 2026-05-08 03:23 | 45.53689 | -122.42050 | 5497 ft | 140 kts | 88° |
| 2026-05-08 03:23 | 45.53748 | -122.40662 | 5497 ft | 140 kts | 88° |
| 2026-05-08 03:24 | 45.53806 | -122.39279 | 5499 ft | 140 kts | 88° |
| 2026-05-08 03:24 | 45.53864 | -122.37894 | 5499 ft | 140 kts | 88° |
| 2026-05-08 03:24 | 45.53921 | -122.36501 | 5497 ft | 141 kts | 88° |
| 2026-05-08 03:24 | 45.53979 | -122.35110 | 5494 ft | 140 kts | 88° |
| 2026-05-08 03:25 | 45.54035 | -122.33741 | 5508 ft | 138 kts | 88° |
| 2026-05-08 03:25 | 45.54095 | -122.32372 | 5503 ft | 139 kts | 88° |
| 2026-05-08 03:25 | 45.54152 | -122.30988 | 5503 ft | 140 kts | 88° |
| 2026-05-08 03:25 | 45.54210 | -122.29605 | 5511 ft | 139 kts | 87° |
| 2026-05-08 03:26 | 45.54265 | -122.28286 | 5680 ft | 129 kts | 88° |
| 2026-05-08 03:26 | 45.54317 | -122.27057 | 5842 ft | 123 kts | 88° |
| 2026-05-08 03:26 | 45.54369 | -122.25842 | 6011 ft | 119 kts | 88° |
| 2026-05-08 03:26 | 45.54417 | -122.24688 | 6178 ft | 117 kts | 88° |
| 2026-05-08 03:27 | 45.54465 | -122.23539 | 6349 ft | 115 kts | 88° |
| 2026-05-08 03:27 | 45.54510 | -122.22413 | 6515 ft | 113 kts | 89° |
| 2026-05-08 03:27 | 45.54552 | -122.21301 | 6678 ft | 111 kts | 88° |
| 2026-05-08 03:27 | 45.54594 | -122.20213 | 6834 ft | 109 kts | 88° |
| 2026-05-08 03:28 | 45.54634 | -122.19141 | 6986 ft | 110 kts | 88° |
| 2026-05-08 03:28 | 45.54674 | -122.17978 | 7008 ft | 125 kts | 88° |
| 2026-05-08 03:28 | 45.54716 | -122.16689 | 7008 ft | 135 kts | 88° |
| 2026-05-08 03:28 | 45.54762 | -122.15316 | 7003 ft | 141 kts | 88° |
| 2026-05-08 03:29 | 45.54809 | -122.13903 | 7000 ft | 143 kts | 88° |
| 2026-05-08 03:29 | 45.54857 | -122.12480 | 7000 ft | 145 kts | 88° |
| 2026-05-08 03:29 | 45.54905 | -122.11046 | 7004 ft | 145 kts | 88° |
| 2026-05-08 03:29 | 45.54936 | -122.10091 | 7005 ft | 146 kts | 88° |
| 2026-05-08 03:30 | 45.55115 | -122.04594 | 6998 ft | 144 kts | 88° |
| 2026-05-08 03:30 | 45.55246 | -122.00412 | 7008 ft | 144 kts | 88° |
| 2026-05-08 03:31 | 45.55432 | -121.97538 | 7002 ft | 146 kts | 81° |
| 2026-05-08 03:31 | 45.55826 | -121.94716 | 6993 ft | 142 kts | 76° |
| 2026-05-08 03:32 | 45.56057 | -121.93338 | 6993 ft | 144 kts | 72° |
| 2026-05-08 03:32 | 45.56325 | -121.91949 | 7003 ft | 147 kts | 72° |
| 2026-05-08 03:32 | 45.56601 | -121.90533 | 6997 ft | 148 kts | 74° |
| 2026-05-08 03:32 | 45.56930 | -121.88989 | 6986 ft | 137 kts | 71° |
| 2026-05-08 03:33 | 45.57455 | -121.86346 | 7010 ft | 144 kts | 73° |
| 2026-05-08 03:33 | 45.58012 | -121.83642 | 6988 ft | 142 kts | 72° |
| 2026-05-08 03:33 | 45.58546 | -121.80893 | 7010 ft | 144 kts | 72° |
| 2026-05-08 03:33 | 45.59077 | -121.78150 | 6963 ft | 143 kts | 72° |
| 2026-05-08 03:34 | 45.60053 | -121.75777 | 6869 ft | 143 kts | 75° |
| 2026-05-08 03:34 | 45.60166 | -121.72943 | 6800 ft | 143 kts | 89° |
| 2026-05-08 03:34 | 45.60225 | -121.69991 | 6552 ft | 156 kts | 89° |
| 2026-05-08 03:34 | 45.60290 | -121.66863 | 6204 ft | 161 kts | 88° |
| 2026-05-08 03:35 | 45.60353 | -121.63693 | 5966 ft | 153 kts | 88° |
| 2026-05-08 03:35 | 45.60414 | -121.60726 | 5964 ft | 150 kts | 87° |
| 2026-05-08 03:35 | 45.60473 | -121.57755 | 5966 ft | 149 kts | 87° |
| 2026-05-08 03:35 | 45.60524 | -121.55138 | 5950 ft | 148 kts | 87° |
| 2026-05-08 03:36 | 45.60532 | -121.54692 | 5949 ft | 147 kts | 87° |
| 2026-05-08 03:36 | 45.60575 | -121.52541 | 5892 ft | 149 kts | 87° |
| 2026-05-08 03:36 | 45.60632 | -121.49529 | 5668 ft | 156 kts | 87° |
| 2026-05-08 03:36 | 45.60691 | -121.46378 | 5385 ft | 161 kts | 87° |
| 2026-05-08 03:37 | 45.60751 | -121.43141 | 5043 ft | 164 kts | 88° |
| 2026-05-08 03:37 | 45.60790 | -121.40981 | 4927 ft | 157 kts | 88° |
| 2026-05-08 03:37 | 45.60796 | -121.39420 | 4793 ft | 159 kts | 89° |
| 2026-05-08 03:37 | 45.60750 | -121.37858 | 4509 ft | 157 kts | 90° |
| 2026-05-08 03:38 | 45.60727 | -121.36321 | 4347 ft | 152 kts | 88° |
| 2026-05-08 03:38 | 45.60733 | -121.34795 | 4087 ft | 156 kts | 92° |
| 2026-05-08 03:38 | 45.60721 | -121.33230 | 3786 ft | 158 kts | 90° |
| 2026-05-08 03:38 | 45.60673 | -121.31662 | 3421 ft | 156 kts | 90° |
| 2026-05-08 03:39 | 45.60677 | -121.30141 | 3008 ft | 153 kts | 90° |
| 2026-05-08 03:39 | 45.60747 | -121.28658 | 2719 ft | 146 kts | 76° |
| 2026-05-08 03:39 | 45.60907 | -121.27206 | 2354 ft | 148 kts | 76° |
| 2026-05-08 03:39 | 45.61120 | -121.25817 | 2017 ft | 137 kts | 74° |
| 2026-05-08 03:40 | 45.61312 | -121.24502 | 1711 ft | 133 kts | 72° |
| 2026-05-08 03:40 | 45.61489 | -121.23206 | 1346 ft | 133 kts | 71° |
| 2026-05-08 03:40 | 45.61664 | -121.21946 | 1066 ft | 131 kts | 79° |
| 2026-05-08 03:40 | 45.61824 | -121.20652 | 799 ft | 127 kts | 75° |
| 2026-05-08 03:41 | 45.61934 | -121.19427 | 557 ft | 121 kts | 75° |
| 2026-05-08 03:41 | 45.62048 | -121.18228 | 362 ft | 124 kts | 80° |
| 2026-05-08 03:41 | 45.62101 | -121.17009 | 228 ft | 118 kts | 87° |
| 2026-05-08 03:41 | 45.62119 | -121.15988 | 250 ft | 82 kts | 93° |
| 2026-05-08 03:42 | 45.62060 | -121.15607 | 244 ft | 0 kts | 243° |
| 2026-05-08 03:42 | 45.62059 | -121.15607 | 244 ft | 0 kts | 243° |